Погода Мочудина 2 недели

Кгатленг, Ботсвана

25 июля-07 августа
  • 25июля
    Сегодня
    +3°
    +24°
    Ясно и безоблачно
    ВремяПогодаТемператураВлажностьДавлениеВетер, м/сВероятность осадков
    02:00Ясно и безоблачно+8°C12 %683 мм3.1 м/с2 %
    05:00Ясно и безоблачно+5°C15 %682 мм2.4 м/с2 %
    08:00Ясно и безоблачно+7°C14 %683 мм2.2 м/с2 %
    11:00Ясно и безоблачно+18°C6 %686 мм0.9 м/с2 %
    14:00Ясно и безоблачно+23°C3 %685 мм0.9 м/с2 %
    17:00Ясно и безоблачно+22°C9 %683 мм1.1 м/с2 %
    20:00Ясно и безоблачно+17°C7 %682 мм2.1 м/с2 %
    23:00Ясно и безоблачно+10°C12 %681 мм2.3 м/с2 %
  • 26июля
    Пятница
    +7°
    +26°
    Ясно и безоблачно
    ВремяПогодаТемператураВлажностьДавлениеВетер, м/сВероятность осадков
    02:00Ясно и безоблачно+6°C20 %680 мм2.0 м/с2 %
    05:00Ясно и безоблачно+4°C25 %680 мм1.9 м/с2 %
    08:00Ясно и безоблачно+7°C47 %682 мм3.0 м/с2 %
    11:00Ясно и безоблачно+17°C48 %685 мм2.8 м/с2 %
    14:00Ясно и безоблачно+24°C21 %683 мм1.6 м/с2 %
    17:00Ясно и безоблачно+24°C16 %682 мм1.1 м/с2 %
    20:00Ясно и безоблачно+16°C23 %681 мм3.0 м/с2 %
    23:00Ясно и безоблачно+16°C29 %682 мм2.8 м/с2 %
  • 27июля
    Суббота
    +4°
    +26°
    Ясно и безоблачно
    ВремяПогодаТемператураВлажностьДавлениеВетер, м/сВероятность осадков
    02:00Ясно и безоблачно+10°C47 %681 мм1.8 м/с2 %
    05:00Ясно и безоблачно+10°C62 %681 мм2.5 м/с2 %
    08:00Ясно и безоблачно+10°C66 %682 мм2.7 м/с2 %
    11:00Ясно и безоблачно+19°C39 %684 мм2.1 м/с2 %
    14:00Ясно и безоблачно+25°C14 %683 мм1.8 м/с2 %
    17:00Ясно и безоблачно+24°C13 %682 мм2.0 м/с2 %
    20:00Ясно и безоблачно+16°C28 %681 мм2.1 м/с2 %
    23:00Ясно и безоблачно+12°C10 %682 мм3.3 м/с2 %
  • 28июля
    Воскресенье
    +3°
    +23°
    Ясно и безоблачно
    ВремяПогодаТемператураВлажностьДавлениеВетер, м/сВероятность осадков
    02:00Ясно и безоблачно+9°C12 %682 мм3.8 м/с2 %
    05:00Ясно и безоблачно+6°C16 %681 мм3.7 м/с2 %
    08:00Ясно и безоблачно+7°C18 %683 мм3.2 м/с2 %
    11:00Ясно и безоблачно+19°C12 %685 мм3.3 м/с2 %
    14:00Ясно и безоблачно+23°C10 %684 мм4.5 м/с2 %
    17:00Ясно и безоблачно+21°C12 %683 мм4.1 м/с2 %
    20:00Ясно и безоблачно+15°C18 %684 мм3.8 м/с2 %
    23:00Ясно и безоблачно+11°C24 %684 мм3.8 м/с2 %
  • 29июля
    Понедельник
    +6°
    +21°
    Ясно и безоблачно
    ВремяПогодаТемператураВлажностьДавлениеВетер, м/сВероятность осадков
    02:00Ясно и безоблачно+7°C39 %684 мм2.3 м/с2 %
    05:00Ясно и безоблачно+5°C57 %683 мм2.3 м/с2 %
    08:00Ясно и безоблачно+6°C46 %685 мм2.3 м/с2 %
    11:00Ясно и безоблачно+14°C21 %686 мм2.0 м/с2 %
    14:00Ясно и безоблачно+19°C9 %684 мм1.0 м/с2 %
    17:00Ясно и безоблачно+19°C11 %684 мм0.4 м/с2 %
    20:00Ясно и безоблачно+16°C11 %684 мм1.2 м/с2 %
    23:00Ясно и безоблачно+11°C16 %683 мм0.9 м/с2 %
Мы используем cookies
Соглашаюсь